Time;durP1;ratioP1;P1;durP2;ratioP2;P2;SDS_P1;SDS_P2;PMS_P1;PMS_P2;Temp;Humidity;BMP_temperature;BMP_pressure;BME280_temperature;BME280_humidity;BME280_pressure;Samples;Min_cycle;Max_cycle;Signal;HPM_P1;HPM_P2
2021/08/09 00:01:46;;;;;;;4.40;1.02;;;21.20;68.80;;;;;;5087918;28;20048;-72
2021/08/09 00:04:12;;;;;;;3.13;1.00;;;21.10;68.80;;;;;;5083438;28;20109;-71
2021/08/09 00:06:38;;;;;;;2.47;1.00;;;21.20;68.80;;;;;;5076358;28;20048;-71
2021/08/09 00:09:05;;;;;;;2.30;0.65;;;21.20;69.10;;;;;;5076439;28;20492;-72
2021/08/09 00:11:31;;;;;;;3.78;0.88;;;21.10;68.80;;;;;;5076297;28;20047;-71
2021/08/09 00:13:57;;;;;;;3.17;0.85;;;21.20;68.90;;;;;;5094526;28;20356;-71
2021/08/09 00:16:23;;;;;;;5.07;1.25;;;21.10;68.90;;;;;;5096869;28;20036;-72
2021/08/09 00:18:49;;;;;;;3.83;1.08;;;21.10;68.90;;;;;;5096225;28;20050;-71
2021/08/09 00:21:19;;;;;;;3.15;0.70;;;21.10;68.90;;;;;;5096331;28;20327;-72
2021/08/09 00:23:46;;;;;;;3.95;0.90;;;21.10;68.90;;;;;;5079110;28;20055;-71
2021/08/09 00:26:12;;;;;;;4.10;1.05;;;21.10;68.90;;;;;;5076086;28;20059;-73
2021/08/09 00:28:38;;;;;;;3.45;0.98;;;21.10;69.00;;;;;;5075818;28;20036;-71
2021/08/09 00:31:04;;;;;;;2.72;0.70;;;21.10;69.00;;;;;;5075893;28;20051;-72
2021/08/09 00:33:29;;;;;;;2.60;0.80;;;21.10;69.00;;;;;;5090505;28;20044;-71
2021/08/09 00:35:55;;;;;;;5.80;0.93;;;21.10;69.10;;;;;;5096399;28;20394;-71
2021/08/09 00:38:21;;;;;;;2.78;0.80;;;21.10;69.10;;;;;;5096238;28;20039;-70
2021/08/09 00:40:48;;;;;;;4.07;1.00;;;21.10;69.10;;;;;;5096260;28;20439;-71
2021/08/09 00:43:14;;;;;;;2.83;1.15;;;21.10;69.10;;;;;;5092558;28;20048;-72
2021/08/09 00:45:39;;;;;;;3.28;0.75;;;21.10;69.10;;;;;;5095655;28;20127;-71
2021/08/09 00:48:05;;;;;;;3.13;0.80;;;21.10;69.10;;;;;;5095924;28;20032;-72
2021/08/09 00:50:32;;;;;;;2.65;0.60;;;21.10;69.10;;;;;;5095858;28;20074;-72
2021/08/09 00:52:59;;;;;;;2.53;0.63;;;21.10;69.10;;;;;;5085739;28;20132;-72
2021/08/09 00:55:25;;;;;;;2.45;0.60;;;21.10;69.10;;;;;;5075855;28;20044;-72
2021/08/09 00:57:51;;;;;;;1.98;0.55;;;21.00;69.10;;;;;;5075283;28;20127;-72
2021/08/09 01:00:17;;;;;;;3.08;0.70;;;21.10;69.20;;;;;;5075794;28;20067;-72
2021/08/09 01:02:44;;;;;;;1.65;0.50;;;21.00;69.10;;;;;;5075958;28;20052;-71
2021/08/09 01:05:11;;;;;;;2.50;0.75;;;21.00;69.10;;;;;;5076109;28;20119;-70
2021/08/09 01:07:43;;;;;;;3.10;1.17;;;21.00;69.10;;;;;;5075570;28;20040;-70
2021/08/09 01:10:41;;;;;;;3.83;0.80;;;21.00;69.20;;;;;;5075434;28;20055;-71
2021/08/09 01:13:32;;;;;;;2.15;0.65;;;21.00;69.40;;;;;;5051908;28;20051;-71
2021/08/09 01:16:08;;;;;;;3.28;0.55;;;21.00;69.10;;;;;;5095724;28;20040;-71
2021/08/09 01:18:37;;;;;;;2.05;0.90;;;21.00;69.10;;;;;;5096236;28;20047;-71
2021/08/09 01:21:05;;;;;;;2.95;0.80;;;21.00;69.20;;;;;;5095294;28;20072;-70
2021/08/09 01:23:56;;;;;;;2.58;0.63;;;21.00;69.20;;;;;;5081475;28;20044;-71
2021/08/09 01:27:01;;;;;;;2.28;0.52;;;21.00;69.10;;;;;;5075376;28;20036;-71
2021/08/09 01:29:41;;;;;;;2.33;0.60;;;21.00;69.10;;;;;;5075212;28;20079;-71
2021/08/09 01:32:08;;;;;;;1.98;0.60;;;21.00;69.20;;;;;;5077304;28;20067;-71
2021/08/09 01:34:35;;;;;;;1.77;0.50;;;21.00;69.20;;;;;;5095152;28;20040;-71
2021/08/09 01:37:03;;;;;;;2.00;0.65;;;21.00;69.20;;;;;;5096115;28;20115;-71
2021/08/09 01:39:30;;;;;;;2.22;0.50;;;21.00;69.30;;;;;;5095292;28;20048;-70
2021/08/09 01:41:56;;;;;;;2.20;0.60;;;21.00;69.20;;;;;;5095115;28;20104;-71
2021/08/09 01:44:24;;;;;;;2.92;0.60;;;21.00;69.30;;;;;;5074797;28;20501;-71
2021/08/09 01:46:51;;;;;;;2.63;0.82;;;21.00;69.30;;;;;;5075076;28;20036;-71
2021/08/09 01:49:19;;;;;;;3.35;1.05;;;21.00;69.90;;;;;;5075670;28;20037;-71
2021/08/09 01:51:45;;;;;;;1.80;0.52;;;21.00;69.30;;;;;;5057225;28;20037;-72
2021/08/09 01:54:12;;;;;;;2.40;0.80;;;21.00;69.40;;;;;;5093310;28;20147;-72
2021/08/09 01:56:41;;;;;;;2.65;0.88;;;21.00;69.30;;;;;;5095412;28;20394;-71
2021/08/09 01:59:07;;;;;;;2.40;0.63;;;21.00;69.40;;;;;;5095198;28;20097;-70
2021/08/09 02:01:33;;;;;;;2.38;0.60;;;21.00;69.30;;;;;;5095252;28;20051;-71
2021/08/09 02:03:59;;;;;;;3.25;0.90;;;21.00;69.40;;;;;;5081373;28;20048;-71
2021/08/09 02:06:25;;;;;;;2.65;1.00;;;21.00;69.40;;;;;;5078899;28;20041;-71
2021/08/09 02:08:51;;;;;;;1.52;0.50;;;21.00;69.40;;;;;;5078386;28;20040;-71
2021/08/09 02:11:43;;;;;;;2.47;0.70;;;21.00;69.40;;;;;;5079086;28;20052;-71
2021/08/09 02:14:12;;;;;;;1.25;0.55;;;21.00;69.50;;;;;;5096319;28;20434;-72
2021/08/09 02:17:04;;;;;;;2.35;0.73;;;21.00;69.50;;;;;;5098955;28;20040;-71
2021/08/09 02:19:37;;;;;;;1.70;0.63;;;21.00;69.50;;;;;;5098532;28;20350;-71
2021/08/09 02:22:18;;;;;;;2.00;0.50;;;20.90;69.40;;;;;;5098472;28;20342;-72
2021/08/09 02:24:52;;;;;;;3.03;0.80;;;20.90;69.40;;;;;;5078599;28;20033;-71
2021/08/09 02:27:22;;;;;;;;;;;20.90;69.40;;;;;;5078930;28;20089;-71
2021/08/09 02:29:51;;;;;;;2.55;0.80;;;20.90;69.30;;;;;;5077945;28;19928;-72
2021/08/09 02:32:20;;;;;;;2.67;0.77;;;20.90;69.50;;;;;;5080174;28;20110;-72
2021/08/09 02:34:48;;;;;;;3.42;0.70;;;20.90;69.50;;;;;;5098774;28;20419;-71
2021/08/09 02:37:15;;;;;;;3.83;0.82;;;20.90;69.50;;;;;;5098537;28;20449;-71
2021/08/09 02:39:41;;;;;;;2.72;0.90;;;20.90;69.50;;;;;;5098370;28;20056;-70
2021/08/09 02:42:09;;;;;;;2.33;1.05;;;20.90;69.50;;;;;;5098076;28;20075;-71
2021/08/09 02:44:36;;;;;;;2.10;0.80;;;20.90;69.40;;;;;;5077899;28;20032;-72
2021/08/09 02:47:03;;;;;;;2.10;0.75;;;20.90;69.50;;;;;;5077834;28;20466;-71
2021/08/09 02:49:29;;;;;;;3.28;0.70;;;20.90;69.50;;;;;;5078109;28;20355;-71
2021/08/09 02:51:56;;;;;;;1.50;0.63;;;20.90;69.50;;;;;;5077526;28;20052;-70
2021/08/09 02:54:22;;;;;;;2.60;0.93;;;20.90;69.50;;;;;;5096358;28;20114;-71
2021/08/09 02:56:50;;;;;;;2.47;1.00;;;20.90;69.50;;;;;;5098495;28;20127;-71
2021/08/09 02:59:16;;;;;;;2.67;0.73;;;20.90;69.50;;;;;;5098310;28;20043;-71
2021/08/09 03:01:42;;;;;;;3.13;0.70;;;20.90;69.50;;;;;;5096259;28;20062;-71
2021/08/09 03:04:13;;;;;;;2.58;0.70;;;20.90;69.50;;;;;;5098112;28;20036;-71
2021/08/09 03:06:39;;;;;;;1.80;0.65;;;20.90;69.50;;;;;;5098714;28;20044;-71
2021/08/09 03:09:07;;;;;;;2.58;0.70;;;20.90;70.10;;;;;;5091262;28;20119;-71
2021/08/09 03:11:36;;;;;;;1.70;1.00;;;20.90;69.50;;;;;;5077312;28;20123;-71
2021/08/09 03:14:02;;;;;;;2.10;1.08;;;20.90;69.50;;;;;;5077719;28;20124;-72
2021/08/09 03:16:28;;;;;;;2.25;0.80;;;20.90;69.60;;;;;;5077754;28;20068;-71
2021/08/09 03:18:54;;;;;;;1.70;0.68;;;20.90;69.60;;;;;;5081517;28;20398;-72
2021/08/09 03:21:20;;;;;;;2.22;0.77;;;20.90;69.60;;;;;;5098363;28;20036;-71
2021/08/09 03:23:45;;;;;;;2.95;0.77;;;20.90;69.60;;;;;;5097867;28;20176;-71
2021/08/09 03:26:12;;;;;;;3.08;1.30;;;20.90;69.70;;;;;;5097561;28;20067;-72
2021/08/09 03:28:38;;;;;;;2.97;0.88;;;20.80;69.60;;;;;;5095027;28;20051;-71
2021/08/09 03:31:04;;;;;;;2.35;0.98;;;20.80;69.60;;;;;;5077033;28;20044;-71
2021/08/09 03:33:30;;;;;;;2.10;0.90;;;20.80;69.70;;;;;;5077070;28;20149;-72
2021/08/09 03:35:57;;;;;;;2.38;1.08;;;20.80;69.70;;;;;;5077380;28;20051;-71
2021/08/09 03:38:23;;;;;;;3.38;1.25;;;20.80;69.70;;;;;;5077217;28;20052;-71
2021/08/09 03:40:48;;;;;;;2.33;1.13;;;20.80;69.60;;;;;;5076752;28;20043;-70
2021/08/09 03:43:15;;;;;;;2.95;0.82;;;20.80;69.60;;;;;;5076971;28;20041;-71
2021/08/09 03:45:41;;;;;;;4.88;1.55;;;20.80;69.60;;;;;;5076518;28;20048;-71
2021/08/09 03:48:10;;;;;;;2.45;1.10;;;20.80;69.60;;;;;;5076941;28;20051;-70
2021/08/09 03:50:36;;;;;;;3.28;1.40;;;20.80;69.60;;;;;;5076852;28;20037;-71
2021/08/09 03:53:02;;;;;;;3.75;1.30;;;20.80;69.60;;;;;;5076340;28;20037;-71
2021/08/09 03:55:28;;;;;;;3.75;1.15;;;20.80;69.70;;;;;;5077353;28;20102;-71
2021/08/09 03:57:54;;;;;;;2.78;1.20;;;20.80;69.70;;;;;;5076704;28;20511;-71
2021/08/09 04:00:20;;;;;;;3.17;1.33;;;20.80;69.70;;;;;;5076639;28;20041;-71
2021/08/09 04:02:45;;;;;;;3.10;1.52;;;20.80;69.80;;;;;;5075966;28;20336;-72
2021/08/09 04:05:13;;;;;;;3.17;1.50;;;20.80;69.80;;;;;;5076738;28;20098;-72
2021/08/09 04:07:39;;;;;;;3.28;1.33;;;20.80;69.80;;;;;;5076700;28;20119;-71
2021/08/09 04:10:06;;;;;;;3.70;1.40;;;20.80;69.80;;;;;;5076296;28;20128;-71
2021/08/09 04:12:32;;;;;;;2.75;1.10;;;20.80;69.80;;;;;;5076236;28;20368;-71
2021/08/09 04:14:58;;;;;;;4.50;1.35;;;20.80;69.80;;;;;;5076487;28;20040;-71
2021/08/09 04:17:24;;;;;;;4.10;1.30;;;20.80;69.80;;;;;;5076392;28;20477;-71
2021/08/09 04:19:50;;;;;;;3.78;1.55;;;20.70;69.80;;;;;;5076870;28;20051;-71
2021/08/09 04:22:15;;;;;;;4.22;1.67;;;20.70;69.90;;;;;;5079485;28;20035;-71
2021/08/09 04:24:41;;;;;;;3.92;1.33;;;20.80;69.90;;;;;;5095812;28;20040;-71
2021/08/09 04:27:08;;;;;;;4.82;1.70;;;20.70;69.90;;;;;;5096567;28;20044;-71
2021/08/09 04:29:34;;;;;;;3.95;1.48;;;20.70;69.90;;;;;;5096300;28;20435;-71
2021/08/09 04:32:00;;;;;;;3.90;1.63;;;20.70;69.90;;;;;;5095148;28;20067;-72
2021/08/09 04:34:26;;;;;;;3.80;1.75;;;20.80;70.00;;;;;;5075896;28;20393;-71
2021/08/09 04:36:52;;;;;;;7.00;1.88;;;20.80;70.00;;;;;;5076039;28;20053;-70
2021/08/09 04:39:17;;;;;;;4.22;1.80;;;20.70;70.00;;;;;;5075563;28;20036;-71
2021/08/09 04:41:43;;;;;;;5.45;1.40;;;20.70;70.00;;;;;;5075913;28;20040;-71
2021/08/09 04:44:12;;;;;;;3.63;1.55;;;20.70;70.00;;;;;;5094543;28;20064;-71
2021/08/09 04:46:39;;;;;;;4.72;1.60;;;20.70;70.00;;;;;;5095959;28;20077;-71
2021/08/09 04:49:05;;;;;;;4.22;1.55;;;20.70;70.00;;;;;;5096145;28;20050;-71
2021/08/09 04:51:31;;;;;;;4.63;1.42;;;20.70;70.00;;;;;;5096644;28;20400;-71
2021/08/09 04:53:57;;;;;;;6.28;1.92;;;20.70;70.00;;;;;;5078518;28;20067;-71
2021/08/09 04:56:24;;;;;;;3.28;1.40;;;20.70;70.00;;;;;;5075952;28;20068;-71
2021/08/09 04:58:50;;;;;;;5.50;1.70;;;20.70;70.00;;;;;;5076142;28;20370;-71
2021/08/09 05:01:16;;;;;;;4.45;1.20;;;20.70;70.00;;;;;;5075746;28;20054;-71
2021/08/09 05:03:42;;;;;;;4.32;1.80;;;20.70;70.00;;;;;;5089891;28;20047;-71
2021/08/09 05:06:14;;;;;;;3.72;1.45;;;20.70;69.90;;;;;;5095362;28;20044;-71
2021/08/09 05:08:40;;;;;;;7.80;2.30;;;20.70;70.00;;;;;;5095615;28;20324;-71
2021/08/09 05:11:05;;;;;;;4.10;2.00;;;20.70;70.00;;;;;;5095540;28;20048;-71
2021/08/09 05:13:31;;;;;;;4.82;1.65;;;20.60;70.00;;;;;;5082516;28;20040;-71
2021/08/09 05:15:57;;;;;;;3.63;1.40;;;20.60;69.90;;;;;;5075502;28;20044;-71
2021/08/09 05:18:23;;;;;;;3.55;1.88;;;20.70;70.00;;;;;;5075235;28;20044;-71
2021/08/09 05:20:49;;;;;;;2.72;1.23;;;20.70;69.90;;;;;;5075992;28;20051;-71
2021/08/09 05:23:19;;;;;;;4.13;1.80;;;20.70;69.90;;;;;;5085745;28;20047;-70
2021/08/09 05:25:44;;;;;;;3.92;1.63;;;20.60;69.90;;;;;;5095967;28;20403;-72
2021/08/09 05:28:10;;;;;;;5.47;1.67;;;20.60;69.90;;;;;;5095614;28;20118;-71
2021/08/09 05:30:36;;;;;;;4.10;1.67;;;20.60;69.90;;;;;;5076274;28;20477;-71
2021/08/09 05:33:04;;;;;;;4.07;1.17;;;20.60;69.90;;;;;;5075856;28;20565;-71
2021/08/09 05:35:30;;;;;;;4.45;1.30;;;20.60;69.90;;;;;;5075410;28;20105;-71
2021/08/09 05:37:56;;;;;;;3.60;1.27;;;20.60;69.90;;;;;;5073930;28;20420;-71
2021/08/09 05:40:22;;;;;;;3.80;1.75;;;20.70;69.90;;;;;;5089200;28;20055;-71
2021/08/09 05:42:50;;;;;;;3.63;1.40;;;20.70;69.90;;;;;;5095300;28;20040;-71
2021/08/09 05:45:17;;;;;;;4.47;1.83;;;20.70;69.90;;;;;;5095514;28;20067;-71
2021/08/09 05:47:43;;;;;;;5.03;1.88;;;20.70;69.90;;;;;;5094925;28;20428;-70
2021/08/09 05:50:10;;;;;;;6.03;2.20;;;20.70;70.00;;;;;;5082605;28;20048;-72
2021/08/09 05:52:36;;;;;;;5.47;1.73;;;20.70;70.00;;;;;;5075218;28;20108;-71
2021/08/09 05:55:04;;;;;;;3.60;1.40;;;20.70;69.90;;;;;;5074648;28;20106;-71
2021/08/09 05:57:29;;;;;;;5.82;1.73;;;20.70;69.90;;;;;;5075032;28;20048;-71
2021/08/09 05:59:56;;;;;;;3.78;1.65;;;20.70;69.90;;;;;;5084954;28;20071;-71
2021/08/09 06:02:21;;;;;;;6.72;1.60;;;20.70;69.90;;;;;;5094969;28;20134;-71
2021/08/09 06:04:47;;;;;;;4.72;1.75;;;20.70;69.90;;;;;;5095534;28;20114;-71
2021/08/09 06:07:14;;;;;;;6.70;1.67;;;20.70;69.90;;;;;;5094438;28;20048;-71
2021/08/09 06:09:41;;;;;;;4.28;1.40;;;20.70;69.90;;;;;;5086949;28;20045;-71
2021/08/09 06:12:08;;;;;;;4.65;1.73;;;20.70;69.90;;;;;;5075212;28;20041;-71
2021/08/09 06:14:34;;;;;;;8.10;2.25;;;20.70;69.90;;;;;;5075574;28;20115;-71
2021/08/09 06:17:00;;;;;;;5.55;1.70;;;20.70;69.90;;;;;;5074960;28;20044;-70
2021/08/09 06:19:27;;;;;;;2.92;1.58;;;20.60;69.90;;;;;;5080535;28;20039;-71
2021/08/09 06:21:53;;;;;;;3.55;1.40;;;20.70;70.00;;;;;;5095468;28;20037;-71
2021/08/09 06:24:21;;;;;;;5.13;1.50;;;20.70;70.00;;;;;;5095150;28;20492;-71
2021/08/09 06:26:47;;;;;;;5.55;1.88;;;20.70;70.00;;;;;;5095574;28;20036;-70
2021/08/09 06:29:13;;;;;;;5.22;1.95;;;20.70;70.00;;;;;;5091045;28;20052;-70
2021/08/09 06:31:38;;;;;;;5.88;1.80;;;20.70;70.00;;;;;;5074758;28;20071;-72
2021/08/09 06:34:04;;;;;;;6.45;2.08;;;20.70;70.10;;;;;;5074980;28;20055;-69
2021/08/09 06:36:30;;;;;;;6.68;1.95;;;20.70;70.10;;;;;;5074523;28;20074;-70
2021/08/09 06:38:56;;;;;;;8.13;2.42;;;20.70;70.20;;;;;;5075322;28;20496;-70
2021/08/09 06:41:24;;;;;;;6.32;2.05;;;20.70;70.20;;;;;;5094779;28;20048;-70
2021/08/09 06:43:50;;;;;;;5.47;2.00;;;20.80;70.50;;;;;;5094645;28;20039;-70
2021/08/09 06:46:17;;;;;;;7.50;1.85;;;20.70;70.50;;;;;;5077709;28;20075;-70
2021/08/09 06:48:43;;;;;;;10.32;4.68;;;20.70;70.50;;;;;;5096236;28;20400;-69
2021/08/09 06:51:09;;;;;;;11.15;4.72;;;20.70;70.70;;;;;;5078451;28;20044;-71
2021/08/09 06:53:35;;;;;;;10.80;4.55;;;20.80;70.90;;;;;;5078465;28;20041;-70
2021/08/09 06:56:00;;;;;;;9.48;3.53;;;20.80;71.50;;;;;;5077901;28;20047;-70
2021/08/09 06:58:26;;;;;;;13.73;6.10;;;20.80;70.90;;;;;;5078030;28;20036;-69
2021/08/09 07:00:52;;;;;;;12.27;5.57;;;20.80;71.10;;;;;;5094476;28;20055;-71
2021/08/09 07:03:18;;;;;;;13.35;5.53;;;20.80;71.30;;;;;;5098075;28;20087;-69
2021/08/09 07:05:46;;;;;;;12.90;5.13;;;20.80;71.30;;;;;;5096267;28;20403;-71
2021/08/09 07:08:13;;;;;;;17.75;4.40;;;20.80;71.40;;;;;;5098129;28;20039;-71
2021/08/09 07:10:40;;;;;;;12.82;4.00;;;20.80;71.50;;;;;;5083009;28;20040;-70
2021/08/09 07:13:06;;;;;;;10.70;4.82;;;20.80;71.60;;;;;;5077724;28;20044;-72
2021/08/09 07:15:32;;;;;;;10.65;4.68;;;20.80;71.70;;;;;;5077295;28;20044;-70
2021/08/09 07:17:57;;;;;;;13.05;4.95;;;20.90;71.80;;;;;;5077272;28;20158;-70
2021/08/09 07:20:23;;;;;;;14.25;3.88;;;20.90;71.90;;;;;;5089428;28;20044;-70
2021/08/09 07:22:49;;;;;;;7.20;3.75;;;20.90;71.80;;;;;;5097468;28;20036;-70
2021/08/09 07:25:16;;;;;;;16.83;4.82;;;20.90;71.90;;;;;;5097804;28;20036;-72
2021/08/09 07:27:43;;;;;;;24.00;4.93;;;20.90;71.90;;;;;;5098275;28;20039;-71
2021/08/09 07:30:11;;;;;;;18.60;4.03;;;20.90;71.90;;;;;;5087270;28;20071;-72
2021/08/09 07:32:38;;;;;;;19.88;3.85;;;20.90;71.90;;;;;;5077049;28;20040;-73
2021/08/09 07:35:04;;;;;;;20.05;4.85;;;20.90;72.00;;;;;;5077065;28;20072;-71
2021/08/09 07:37:30;;;;;;;19.55;5.03;;;20.90;71.90;;;;;;5077518;28;20186;-72
2021/08/09 07:39:56;;;;;;;23.90;6.03;;;20.90;71.80;;;;;;5084772;28;20107;-74
2021/08/09 07:42:22;;;;;;;19.60;5.93;;;20.90;71.80;;;;;;5097116;28;20047;-73
2021/08/09 07:44:48;;;;;;;21.77;5.28;;;20.90;71.80;;;;;;5097146;28;20058;-71
2021/08/09 07:47:15;;;;;;;21.90;4.78;;;20.90;71.80;;;;;;5097590;28;20127;-74
2021/08/09 07:49:41;;;;;;;14.35;4.93;;;21.00;71.70;;;;;;5091562;28;20040;-75
2021/08/09 07:52:07;;;;;;;18.10;4.05;;;20.90;71.60;;;;;;5077004;28;20485;-75
2021/08/09 07:54:33;;;;;;;16.67;3.97;;;20.90;71.50;;;;;;5077538;28;20413;-75
2021/08/09 07:57:03;;;;;;;15.93;4.68;;;21.00;71.60;;;;;;5076604;28;20048;-79
2021/08/09 07:59:29;;;;;;;12.65;3.80;;;20.90;71.40;;;;;;5090780;28;20054;-75
2021/08/09 08:01:55;;;;;;;18.23;4.15;;;21.00;71.50;;;;;;5093840;28;20056;-76
2021/08/09 08:04:21;;;;;;;14.85;3.67;;;20.90;71.40;;;;;;5076042;28;20048;-76
2021/08/09 08:06:46;;;;;;;14.55;4.15;;;20.90;71.40;;;;;;5076072;28;20037;-76
2021/08/09 08:09:12;;;;;;;13.80;3.58;;;20.90;71.40;;;;;;5076145;28;20158;-72
2021/08/09 08:11:38;;;;;;;14.25;3.95;;;20.90;71.40;;;;;;5076576;28;20189;-72
2021/08/09 08:14:04;;;;;;;13.80;3.55;;;20.90;71.40;;;;;;5095250;28;20040;-72
2021/08/09 08:16:30;;;;;;;13.15;3.60;;;20.90;71.40;;;;;;5096284;28;20339;-70
2021/08/09 08:18:56;;;;;;;16.52;2.97;;;20.90;71.50;;;;;;5096677;28;20036;-72
2021/08/09 08:21:21;;;;;;;8.23;2.92;;;20.90;71.50;;;;;;5096025;28;20093;-72
2021/08/09 08:23:47;;;;;;;9.18;2.67;;;21.00;71.70;;;;;;5079324;28;20040;-71
2021/08/09 08:26:13;;;;;;;18.02;3.22;;;20.90;71.60;;;;;;5076024;28;20045;-72
2021/08/09 08:28:39;;;;;;;9.95;3.53;;;21.00;71.80;;;;;;5076433;28;20047;-71
2021/08/09 08:31:05;;;;;;;12.10;3.33;;;21.00;71.80;;;;;;5076102;28;20044;-72
2021/08/09 08:33:31;;;;;;;13.50;2.88;;;20.90;71.70;;;;;;5087510;28;20046;-71
2021/08/09 08:35:57;;;;;;;10.27;3.13;;;21.00;71.80;;;;;;5094967;28;20055;-71
2021/08/09 08:38:23;;;;;;;15.27;3.28;;;20.90;71.70;;;;;;5094954;28;20047;-72
2021/08/09 08:40:51;;;;;;;9.07;2.80;;;21.00;71.80;;;;;;5094569;28;20052;-73
2021/08/09 08:43:25;;;;;;;13.90;3.17;;;21.00;71.90;;;;;;5082895;28;20462;-73
2021/08/09 08:46:03;;;;;;;9.23;2.65;;;21.00;71.70;;;;;;5091046;28;20044;-72
2021/08/09 08:48:32;;;;;;;8.73;3.10;;;21.00;71.60;;;;;;5095259;28;20114;-73
2021/08/09 08:51:00;;;;;;;11.40;2.47;;;21.00;71.70;;;;;;5096067;28;20435;-72
2021/08/09 08:53:29;;;;;;;9.05;2.33;;;21.00;71.60;;;;;;5094954;28;20119;-73
2021/08/09 08:55:55;;;;;;;8.15;2.67;;;21.00;71.50;;;;;;5095704;28;20447;-71
2021/08/09 08:58:21;;;;;;;8.10;3.00;;;21.00;71.50;;;;;;5095804;28;20044;-73
2021/08/09 09:00:48;;;;;;;12.23;3.17;;;21.00;71.50;;;;;;5095999;28;20074;-71
2021/08/09 09:03:21;;;;;;;6.78;2.35;;;21.00;71.40;;;;;;5083779;28;20056;-73
2021/08/09 09:06:06;;;;;;;11.68;2.60;;;21.00;71.40;;;;;;5075410;28;20047;-73
2021/08/09 09:08:46;;;;;;;11.32;2.70;;;21.10;71.30;;;;;;5075298;28;20044;-72
2021/08/09 09:11:24;;;;;;;9.82;2.95;;;21.10;71.30;;;;;;5075074;28;20040;-73
2021/08/09 09:13:58;;;;;;;12.95;2.65;;;21.10;71.20;;;;;;5090535;28;20036;-73
2021/08/09 09:16:25;;;;;;;9.02;2.13;;;21.10;71.20;;;;;;5087281;28;20040;-73
2021/08/09 09:18:55;;;;;;;7.90;2.33;;;21.10;71.20;;;;;;5075638;28;20089;-70
2021/08/09 09:21:32;;;;;;;9.60;2.72;;;21.10;71.30;;;;;;5075034;28;20068;-73
2021/08/09 09:24:13;;;;;;;9.13;2.47;;;21.10;71.20;;;;;;5075418;28;20040;-73
2021/08/09 09:26:44;;;;;;;6.93;2.05;;;21.10;71.20;;;;;;5084170;28;20157;-73
2021/08/09 09:29:16;;;;;;;10.85;2.30;;;21.10;71.20;;;;;;5096028;28;20055;-74
2021/08/09 09:31:44;;;;;;;9.10;2.47;;;21.10;71.30;;;;;;5095355;28;20097;-73
2021/08/09 09:34:12;;;;;;;7.10;2.55;;;21.10;71.40;;;;;;5095227;28;20405;-72
2021/08/09 09:36:51;;;;;;;9.13;2.83;;;21.10;71.40;;;;;;5086249;28;20123;-71
2021/08/09 09:39:32;;;;;;;9.93;2.15;;;21.10;71.90;;;;;;5075262;28;20055;-74
2021/08/09 09:42:02;;;;;;;7.35;2.65;;;21.20;71.00;;;;;;5075056;28;20044;-75
2021/08/09 09:44:29;;;;;;;11.80;3.13;;;21.20;69.60;;;;;;5057191;28;20036;-74
2021/08/09 09:47:23;;;;;;;12.98;2.85;;;21.20;68.90;;;;;;5085761;28;20062;-73
2021/08/09 09:49:52;;;;;;;10.35;2.72;;;21.10;68.50;;;;;;5095301;28;20070;-72
2021/08/09 09:52:47;;;;;;;11.95;2.40;;;21.00;69.40;;;;;;5095672;28;20109;-75
2021/08/09 09:55:15;;;;;;;8.70;2.22;;;20.90;69.60;;;;;;5095365;28;20044;-73
2021/08/09 09:57:43;;;;;;;12.93;2.38;;;21.00;68.00;;;;;;5077795;28;20036;-75
2021/08/09 10:00:12;;;;;;;10.25;3.05;;;21.00;68.10;;;;;;5075089;28;20119;-74
2021/08/09 10:02:48;;;;;;;12.63;2.38;;;20.90;68.80;;;;;;5075068;28;20490;-73
2021/08/09 10:05:16;;;;;;;15.70;2.88;;;20.80;69.20;;;;;;5074445;28;20068;-79
2021/08/09 10:07:47;;;;;;;14.45;2.95;;;20.90;69.70;;;;;;5073480;28;20119;-72
2021/08/09 10:10:14;;;;;;;10.70;2.30;;;21.00;69.10;;;;;;5095031;28;20036;-73
2021/08/09 10:12:42;;;;;;;11.95;1.95;;;21.00;69.10;;;;;;5095248;28;20068;-73
2021/08/09 10:15:08;;;;;;;9.60;2.25;;;20.90;69.30;;;;;;5094682;28;20032;-74
2021/08/09 10:17:36;;;;;;;9.57;2.47;;;21.00;69.60;;;;;;5078276;28;20108;-71
2021/08/09 10:20:08;;;;;;;8.90;2.17;;;21.00;69.70;;;;;;5074616;28;20044;-72
2021/08/09 10:22:33;;;;;;;7.72;1.98;;;21.00;69.90;;;;;;5074485;28;20048;-72
2021/08/09 10:25:00;;;;;;;8.38;1.85;;;21.00;70.10;;;;;;5078049;28;20044;-72
2021/08/09 10:27:48;;;;;;;4.35;1.90;;;21.00;70.10;;;;;;5092245;28;20110;-71
2021/08/09 10:30:16;;;;;;;6.97;1.88;;;21.00;70.00;;;;;;5098580;28;20043;-71
2021/08/09 10:32:45;;;;;;;7.20;2.00;;;21.00;70.10;;;;;;5098764;28;20047;-72
2021/08/09 10:35:32;;;;;;;5.30;1.48;;;21.00;70.10;;;;;;5098433;28;20042;-72
2021/08/09 10:38:15;;;;;;;5.40;1.98;;;21.10;70.00;;;;;;5078828;28;20355;-72
2021/08/09 10:41:07;;;;;;;6.80;2.20;;;21.00;70.00;;;;;;5078298;28;20123;-75
2021/08/09 10:43:40;;;;;;;9.93;1.75;;;21.00;70.20;;;;;;5077942;28;20043;-73
2021/08/09 10:46:41;;;;;;;3.67;1.30;;;21.10;70.70;;;;;;5081466;28;20036;-73
2021/08/09 10:49:08;;;;;;;4.38;1.50;;;21.10;70.40;;;;;;5045557;28;20040;-75
2021/08/09 10:51:50;;;;;;;5.05;1.40;;;21.10;70.70;;;;;;5098368;28;20120;-74
2021/08/09 10:54:30;;;;;;;7.03;2.00;;;21.10;70.80;;;;;;5098382;28;20044;-72
2021/08/09 10:56:57;;;;;;;6.93;1.65;;;21.10;70.70;;;;;;5089030;28;20094;-72
2021/08/09 10:59:46;;;;;;;6.53;1.70;;;21.10;70.80;;;;;;5083204;28;20046;-75
2021/08/09 11:02:34;;;;;;;6.93;1.40;;;21.10;70.60;;;;;;5087749;28;20059;-71
2021/08/09 11:05:15;;;;;;;4.78;1.08;;;21.10;70.90;;;;;;5078870;28;20450;-72
2021/08/09 11:07:42;;;;;;;5.90;1.73;;;21.10;70.90;;;;;;5085023;28;20043;-72
2021/08/09 11:10:09;;;;;;;6.82;1.63;;;21.10;71.10;;;;;;5088546;28;20059;-71
2021/08/09 11:13:08;;;;;;;4.85;1.17;;;21.10;71.20;;;;;;5077800;28;20109;-70
2021/08/09 11:15:55;;;;;;;4.93;1.60;;;21.20;70.90;;;;;;5043782;28;20060;-70
2021/08/09 11:18:21;;;;;;;5.70;1.30;;;21.10;71.20;;;;;;5077469;28;20063;-70
2021/08/09 11:20:47;;;;;;;6.68;1.05;;;21.20;71.60;;;;;;5077619;28;20040;-71
2021/08/09 11:23:15;;;;;;;3.38;1.30;;;21.20;71.60;;;;;;5077254;28;20538;-70
2021/08/09 11:25:46;;;;;;;10.43;1.60;;;21.20;71.50;;;;;;5078457;28;20040;-76
2021/08/09 11:28:14;;;;;;;10.80;2.00;;;21.30;71.50;;;;;;5095453;28;20040;-76
2021/08/09 11:30:45;;;;;;;5.18;1.38;;;21.30;71.60;;;;;;5086351;28;20355;-74
2021/08/09 11:33:29;;;;;;;6.95;1.45;;;21.20;71.50;;;;;;5097304;28;20044;-70
2021/08/09 11:36:02;;;;;;;;;;;21.20;71.50;;;;;;5085258;28;20040;-70
2021/08/09 11:38:40;;;;;;;5.55;1.50;;;21.20;71.40;;;;;;5076924;28;19916;-71
2021/08/09 11:41:12;;;;;;;5.93;1.50;;;21.20;71.50;;;;;;5076916;28;20060;-70
2021/08/09 11:43:39;;;;;;;6.38;1.35;;;21.20;71.10;;;;;;5077138;28;20128;-70
2021/08/09 11:46:14;;;;;;;3.92;1.38;;;21.20;71.20;;;;;;5077030;28;20036;-70
2021/08/09 11:48:42;;;;;;;11.88;1.63;;;21.20;71.20;;;;;;5076422;28;20044;-70
2021/08/09 11:51:14;;;;;;;18.20;1.90;;;21.20;71.30;;;;;;5076875;28;20028;-74
2021/08/09 11:53:47;;;;;;;11.63;2.10;;;21.30;71.40;;;;;;5091803;28;20111;-74
2021/08/09 11:56:17;;;;;;;11.45;1.90;;;21.30;71.50;;;;;;5097003;28;20048;-70
2021/08/09 11:58:43;;;;;;;7.80;1.67;;;21.30;71.40;;;;;;5095629;28;20439;-69
2021/08/09 12:01:17;;;;;;;12.18;1.70;;;21.30;71.30;;;;;;5092833;28;20059;-69
2021/08/09 12:04:09;;;;;;;10.00;1.75;;;21.30;71.30;;;;;;5093484;28;20109;-70
2021/08/09 12:06:52;;;;;;;17.15;1.65;;;21.30;71.10;;;;;;5096811;28;20040;-69
2021/08/09 12:09:24;;;;;;;12.00;2.10;;;21.30;71.00;;;;;;5096616;28;20424;-69
2021/08/09 12:12:01;;;;;;;11.27;1.73;;;21.30;71.10;;;;;;5095706;28;20109;-70
2021/08/09 12:14:28;;;;;;;4.80;1.67;;;21.30;70.90;;;;;;5076950;28;20174;-70
2021/08/09 12:16:58;;;;;;;8.05;1.38;;;21.30;71.00;;;;;;5076581;28;20102;-70
2021/08/09 12:19:42;;;;;;;5.13;1.63;;;21.30;70.90;;;;;;5076645;28;20040;-70
2021/08/09 12:22:17;;;;;;;7.32;1.40;;;21.30;70.70;;;;;;5077858;28;20048;-70
2021/08/09 12:25:01;;;;;;;4.15;1.25;;;21.30;70.80;;;;;;5076000;28;20040;-70
2021/08/09 12:27:27;;;;;;;;;;;21.30;70.80;;;;;;5076568;28;20350;-70
2021/08/09 12:30:00;;;;;;;7.72;1.40;;;21.30;70.50;;;;;;5076188;28;20003;-69
2021/08/09 12:32:28;;;;;;;6.78;1.65;;;21.30;70.70;;;;;;5081066;28;20097;-70
2021/08/09 12:34:54;;;;;;;5.35;1.30;;;21.30;70.70;;;;;;5086545;28;20048;-70
2021/08/09 12:37:20;;;;;;;4.25;1.52;;;21.30;71.20;;;;;;5075927;28;20463;-70
2021/08/09 12:39:46;;;;;;;6.15;1.20;;;21.30;70.60;;;;;;5076169;28;20111;-70
2021/08/09 12:42:20;;;;;;;7.38;1.08;;;21.30;70.60;;;;;;5078343;28;20036;-70
2021/08/09 12:44:47;;;;;;;5.30;1.38;;;21.30;70.50;;;;;;5096849;28;20056;-70
2021/08/09 12:47:14;;;;;;;4.97;1.27;;;21.30;70.50;;;;;;5095430;28;20044;-70
2021/08/09 12:49:40;;;;;;;2.40;1.15;;;21.30;70.50;;;;;;5096076;28;20330;-70
2021/08/09 12:52:06;;;;;;;4.60;1.23;;;21.30;70.50;;;;;;5093749;28;20437;-70
2021/08/09 12:54:33;;;;;;;4.93;1.35;;;21.40;70.50;;;;;;5075673;28;20036;-70
2021/08/09 12:57:00;;;;;;;3.88;1.05;;;21.40;70.50;;;;;;5075893;28;20041;-69